Time;durP1;ratioP1;P1;durP2;ratioP2;P2;SDS_P1;SDS_P2;PMS_P1;PMS_P2;Temp;Humidity;BMP_temperature;BMP_pressure;BME280_temperature;BME280_humidity;BME280_pressure;Samples;Min_cycle;Max_cycle;Signal;HPM_P1;HPM_P2
2022/05/14 00:00:46;;;;;;;;;;;;;;;;;;2575557;23;19904;-85
2022/05/14 00:01:46;;;;;;;;;;;;;;;;;;2575338;23;19991;-85
2022/05/14 00:02:47;;;;;;;;;;;;;;;;;;2570690;23;20251;-86
2022/05/14 00:03:47;;;;;;;;;;;;;;;;;;2570685;23;19987;-85
2022/05/14 00:04:48;;;;;;;;;;;;;;;;;;2583248;23;19903;-85
2022/05/14 00:05:48;;;;;;;;;;;;;;;;;;2574815;23;20226;-85
2022/05/14 00:06:48;;;;;;;;;;;;;;;;;;2570579;23;19939;-85
2022/05/14 00:07:50;;;;;;;;;;;;;;;;;;2574950;23;19903;-85
2022/05/14 00:08:54;;;;;;;;;;;;;;;;;;2575409;23;19904;-85
2022/05/14 00:09:54;;;;;;;;;;;;;;;;;;2570560;23;20292;-85
2022/05/14 00:13:32;;;;;;;;;;;;;;;;;;2575349;23;19907;-85
2022/05/14 00:14:32;;;;;;;;;;;;;;;;;;2575451;23;20266;-85
2022/05/14 00:15:37;;;;;;;;;;;;;;;;;;2575235;23;20230;-84
2022/05/14 00:16:38;;;;;;;;;;;;;;;;;;2583120;23;19946;-85
2022/05/14 00:17:38;;;;;;;;;;;;;;;;;;2587361;23;19914;-85
2022/05/14 00:18:39;;;;;;;;;;;;;;;;;;2574772;23;19911;-84
2022/05/14 00:19:39;;;;;;;;;;;;;;;;;;2575272;23;19910;-86
2022/05/14 00:20:47;;;;;;;;;;;;;;;;;;2575313;23;19919;-86
2022/05/14 00:21:50;;;;;;;;;;;;;;;;;;2575426;23;19908;-86
2022/05/14 00:22:51;;;;;;;;;;;;;;;;;;2582977;23;19903;-86
2022/05/14 00:23:51;;;;;;;;;;;;;;;;;;2570370;23;20008;-86
2022/05/14 00:24:51;;;;;;;;;;;;;;;;;;2574724;23;19907;-85
2022/05/14 00:25:52;;;;;;;;;;;;;;;;;;2570567;23;19904;-85
2022/05/14 00:26:52;;;;;;;;;;;;;;;;;;2574660;23;19915;-84
2022/05/14 00:27:53;;;;;;;;;;;;;;;;;;2575377;23;19946;-84
2022/05/14 00:29:03;;;;;;;;;;;;;;;;;;;;;
2022/05/14 00:30:03;;;;;;;;;;;;;;;;;;2574752;23;19903;-85
2022/05/14 00:31:21;;;;;;;;;;;;;;;;;;;;;
2022/05/14 00:32:36;;;;;;;;;;;;;;;;;;2575216;23;19962;-85
2022/05/14 00:33:45;;;;;;;;;;;;;;;;;;2570423;23;19904;-85
2022/05/14 00:34:55;;;;;;;;;;;;;;;;;;;;;
2022/05/14 00:35:56;;;;;;;;;;;;;;;;;;2585437;23;19941;-84
2022/05/14 00:37:00;;;;;;;;;;;;;;;;;;2575284;23;19935;-84
2022/05/14 00:38:01;;;;;;;;;;;;;;;;;;2575270;23;19982;-85
2022/05/14 00:39:04;;;;;;;;;;;;;;;;;;2575183;23;20012;-86
2022/05/14 00:40:09;;;;;;;;;;;;;;;;;;2575282;23;20326;-85
2022/05/14 00:41:10;;;;;;;;;;;;;;;;;;2576860;23;19978;-85
2022/05/14 00:42:10;;;;;;;;;;;;;;;;;;2587817;23;19903;-85
2022/05/14 00:43:10;;;;;;;;;;;;;;;;;;2583025;23;19903;-85
2022/05/14 00:44:13;;;;;;;;;;;;;;;;;;2583133;23;20005;-85
2022/05/14 00:45:16;;;;;;;;;;;;;;;;;;2574986;23;19919;-85
2022/05/14 00:46:25;;;;;;;;;;;;;;;;;;2570268;23;19979;-85
2022/05/14 00:47:26;;;;;;;;;;;;;;;;;;2572054;23;19903;-85
2022/05/14 00:48:33;;;;;;;;;;;;;;;;;;2582785;23;19931;-86
2022/05/14 00:49:36;;;;;;;;;;;;;;;;;;2571796;23;19908;-86
2022/05/14 00:50:55;;;;;;;;;;;;;;;;;;2570619;23;19910;-85
2022/05/14 00:51:59;;;;;;;;;;;;;;;;;;2578355;23;19915;-85
2022/05/14 00:53:20;;;;;;;;;;;;;;;;;;2570346;23;19903;-85
2022/05/14 00:54:25;;;;;;;;;;;;;;;;;;2574502;23;20032;-85
2022/05/14 00:55:30;;;;;;;;;;;;;;;;;;2587310;23;19938;-85
2022/05/14 00:56:39;;;;;;;;;;;;;;;;;;2588050;23;19990;-85
2022/05/14 00:57:41;;;;;;;;;;;;;;;;;;2587726;23;19939;-86
2022/05/14 00:58:50;;;;;;;;;;;;;;;;;;2583757;23;20199;-85
2022/05/14 00:59:53;;;;;;;;;;;;;;;;;;2587682;23;19915;-86
2022/05/14 01:00:54;;;;;;;;;;;;;;;;;;2587752;23;19908;-85
2022/05/14 01:01:55;;;;;;;;;;;;;;;;;;2587793;23;20195;-85
2022/05/14 01:02:56;;;;;;;;;;;;;;;;;;2587677;23;20231;-85
2022/05/14 01:03:59;;;;;;;;;;;;;;;;;;2587791;23;19942;-85
2022/05/14 01:05:00;;;;;;;;;;;;;;;;;;2587858;23;19907;-85
2022/05/14 01:06:02;;;;;;;;;;;;;;;;;;2587695;23;19904;-85
2022/05/14 01:07:07;;;;;;;;;;;;;;;;;;2587690;23;19919;-85
2022/05/14 01:08:07;;;;;;;;;;;;;;;;;;2587817;23;19961;-85
2022/05/14 01:09:07;;;;;;;;;;;;;;;;;;2570470;23;20014;-85
2022/05/14 01:10:21;;;;;;;;;;;;;;;;;;2574601;23;19904;-85
2022/05/14 01:11:21;;;;;;;;;;;;;;;;;;2582742;23;19951;-85
2022/05/14 01:12:22;;;;;;;;;;;;;;;;;;2587253;23;19935;-86
2022/05/14 01:13:24;;;;;;;;;;;;;;;;;;2587863;23;19903;-85
2022/05/14 01:14:27;;;;;;;;;;;;;;;;;;2587725;23;19934;-85
2022/05/14 01:15:41;;;;;;;;;;;;;;;;;;2587894;23;19911;-85
2022/05/14 01:16:41;;;;;;;;;;;;;;;;;;2587144;23;20273;-84
2022/05/14 01:17:44;;;;;;;;;;;;;;;;;;2586933;23;19907;-84
2022/05/14 01:18:44;;;;;;;;;;;;;;;;;;2587777;23;19907;-85
2022/05/14 01:19:47;;;;;;;;;;;;;;;;;;2587624;23;19903;-85
2022/05/14 01:21:02;;;;;;;;;;;;;;;;;;2570093;23;19904;-85
2022/05/14 01:22:23;;;;;;;;;;;;;;;;;;2577565;23;19908;-85
2022/05/14 01:23:38;;;;;;;;;;;;;;;;;;2587636;23;20250;-84
2022/05/14 01:26:30;;;;;;;;;;;;;;;;;;2587771;23;19903;-85
2022/05/14 01:27:30;;;;;;;;;;;;;;;;;;2570093;23;19904;-85
2022/05/14 01:28:40;;;;;;;;;;;;;;;;;;2574638;23;20286;-84
2022/05/14 01:29:41;;;;;;;;;;;;;;;;;;2587615;23;20231;-84
2022/05/14 01:30:48;;;;;;;;;;;;;;;;;;2587663;23;19911;-84
2022/05/14 01:31:54;;;;;;;;;;;;;;;;;;2570104;23;19923;-84
2022/05/14 01:33:07;;;;;;;;;;;;;;;;;;2575630;23;19916;-84
2022/05/14 01:34:11;;;;;;;;;;;;;;;;;;2587709;23;19930;-84
2022/05/14 01:35:17;;;;;;;;;;;;;;;;;;2587138;23;19907;-84
2022/05/14 01:36:18;;;;;;;;;;;;;;;;;;2570277;23;19982;-84
2022/05/14 01:37:20;;;;;;;;;;;;;;;;;;2574361;23;19904;-84
2022/05/14 01:38:23;;;;;;;;;;;;;;;;;;2587782;23;19903;-85
2022/05/14 01:39:26;;;;;;;;;;;;;;;;;;2587718;23;19915;-85
2022/05/14 01:40:27;;;;;;;;;;;;;;;;;;2587529;23;19903;-84
2022/05/14 01:41:30;;;;;;;;;;;;;;;;;;2569907;23;19908;-84
2022/05/14 01:42:38;;;;;;;;;;;;;;;;;;2574395;23;19975;-84
2022/05/14 01:43:41;;;;;;;;;;;;;;;;;;2574411;23;20065;-84
2022/05/14 01:44:43;;;;;;;;;;;;;;;;;;2574390;23;19986;-84
2022/05/14 01:46:00;;;;;;;;;;;;;;;;;;2570444;23;19914;-84
2022/05/14 01:47:10;;;;;;;;;;;;;;;;;;2561866;23;19908;-84
2022/05/14 01:48:11;;;;;;;;;;;;;;;;;;2564098;23;20514;-84
2022/05/14 01:49:13;;;;;;;;;;;;;;;;;;2570148;23;19912;-84
2022/05/14 01:50:16;;;;;;;;;;;;;;;;;;2574348;23;20290;-84
2022/05/14 01:51:19;;;;;;;;;;;;;;;;;;2565525;23;19943;-84
2022/05/14 01:52:23;;;;;;;;;;;;;;;;;;2570116;23;19903;-84
2022/05/14 01:53:33;;;;;;;;;;;;;;;;;;;;;
2022/05/14 01:54:36;;;;;;;;;;;;;;;;;;2574368;23;19914;-83
2022/05/14 01:55:42;;;;;;;;;;;;;;;;;;2570305;23;20303;-83
2022/05/14 01:56:42;;;;;;;;;;;;;;;;;;2574576;23;19923;-84
2022/05/14 01:57:42;;;;;;;;;;;;;;;;;;2557722;23;19908;-84
2022/05/14 01:58:43;;;;;;;;;;;;;;;;;;2557512;23;19979;-84
2022/05/14 01:59:44;;;;;;;;;;;;;;;;;;2569990;23;19915;-84
2022/05/14 02:00:46;;;;;;;;;;;;;;;;;;2562117;23;19904;-84
2022/05/14 02:01:46;;;;;;;;;;;;;;;;;;2570040;23;19915;-84
2022/05/14 02:02:47;;;;;;;;;;;;;;;;;;2574446;23;19915;-84
2022/05/14 02:03:53;;;;;;;;;;;;;;;;;;2574853;23;19936;-83
2022/05/14 02:04:54;;;;;;;;;;;;;;;;;;2574987;23;19904;-83
2022/05/14 02:05:54;;;;;;;;;;;;;;;;;;2574825;23;19950;-84
2022/05/14 02:06:54;;;;;;;;;;;;;;;;;;2557772;23;19986;-84
2022/05/14 02:07:55;;;;;;;;;;;;;;;;;;2557633;23;20316;-84
2022/05/14 02:08:57;;;;;;;;;;;;;;;;;;2570855;23;19923;-84
2022/05/14 02:09:58;;;;;;;;;;;;;;;;;;2557606;23;20002;-84
2022/05/14 02:10:59;;;;;;;;;;;;;;;;;;2561983;23;20327;-84
2022/05/14 02:12:01;;;;;;;;;;;;;;;;;;2574731;23;19912;-84
2022/05/14 02:13:01;;;;;;;;;;;;;;;;;;2574986;23;20250;-84
2022/05/14 02:14:02;;;;;;;;;;;;;;;;;;2574892;23;19911;-84
2022/05/14 02:15:03;;;;;;;;;;;;;;;;;;2574832;23;19999;-84
2022/05/14 02:16:03;;;;;;;;;;;;;;;;;;2574811;23;20231;-84
2022/05/14 02:17:04;;;;;;;;;;;;;;;;;;2574837;23;20156;-84
2022/05/14 02:18:04;;;;;;;;;;;;;;;;;;2570173;23;19911;-84
2022/05/14 02:19:04;;;;;;;;;;;;;;;;;;2574204;23;19987;-84
2022/05/14 02:20:05;;;;;;;;;;;;;;;;;;2574837;23;19954;-85
2022/05/14 02:21:05;;;;;;;;;;;;;;;;;;2557443;23;19986;-83
2022/05/14 02:22:06;;;;;;;;;;;;;;;;;;2561881;23;19904;-84
2022/05/14 02:23:06;;;;;;;;;;;;;;;;;;2574760;23;19943;-84
2022/05/14 02:24:07;;;;;;;;;;;;;;;;;;2557706;23;19947;-84
2022/05/14 02:25:10;;;;;;;;;;;;;;;;;;2557706;23;20316;-84
2022/05/14 02:26:11;;;;;;;;;;;;;;;;;;2574442;23;19904;-83
2022/05/14 02:27:11;;;;;;;;;;;;;;;;;;2574818;23;19961;-83
2022/05/14 02:28:12;;;;;;;;;;;;;;;;;;2570055;23;20277;-83
2022/05/14 02:29:12;;;;;;;;;;;;;;;;;;2561853;23;19904;-83
2022/05/14 02:30:13;;;;;;;;;;;;;;;;;;2561736;23;19942;-83
2022/05/14 02:31:13;;;;;;;;;;;;;;;;;;2574740;23;19914;-83
2022/05/14 02:32:14;;;;;;;;;;;;;;;;;;2574816;23;19904;-82
2022/05/14 02:33:14;;;;;;;;;;;;;;;;;;2574791;23;19918;-83
2022/05/14 02:34:17;;;;;;;;;;;;;;;;;;2574919;23;20282;-83
2022/05/14 02:35:17;;;;;;;;;;;;;;;;;;2574797;23;20200;-83
2022/05/14 02:36:18;;;;;;;;;;;;;;;;;;2574930;23;19960;-83
2022/05/14 02:37:19;;;;;;;;;;;;;;;;;;2574713;23;20303;-83
2022/05/14 02:38:19;;;;;;;;;;;;;;;;;;2575180;23;19986;-83
2022/05/14 02:39:19;;;;;;;;;;;;;;;;;;2570046;23;20335;-83
2022/05/14 02:40:21;;;;;;;;;;;;;;;;;;2570253;23;19991;-83
2022/05/14 02:41:26;;;;;;;;;;;;;;;;;;2548804;23;19908;-83
2022/05/14 02:42:26;;;;;;;;;;;;;;;;;;2575297;23;19974;-83
2022/05/14 02:43:27;;;;;;;;;;;;;;;;;;2587452;23;20299;-83
2022/05/14 02:44:30;;;;;;;;;;;;;;;;;;2570076;23;19904;-83
2022/05/14 02:45:30;;;;;;;;;;;;;;;;;;2574716;23;20239;-83
2022/05/14 02:46:30;;;;;;;;;;;;;;;;;;2587359;23;20156;-83
2022/05/14 02:47:42;;;;;;;;;;;;;;;;;;2570019;23;20108;-83
2022/05/14 02:48:48;;;;;;;;;;;;;;;;;;2576606;23;19907;-83
2022/05/14 02:49:53;;;;;;;;;;;;;;;;;;2587464;23;20311;-83
2022/05/14 02:51:03;;;;;;;;;;;;;;;;;;2582933;23;20310;-83
2022/05/14 02:52:09;;;;;;;;;;;;;;;;;;2587330;23;19904;-83
2022/05/14 02:53:19;;;;;;;;;;;;;;;;;;2574424;23;19903;-84
2022/05/14 02:54:19;;;;;;;;;;;;;;;;;;2576312;23;20262;-84
2022/05/14 02:55:29;;;;;;;;;;;;;;;;;;2587480;23;19904;-83
2022/05/14 02:56:32;;;;;;;;;;;;;;;;;;2587534;23;19907;-83
2022/05/14 02:57:38;;;;;;;;;;;;;;;;;;2587400;23;19907;-86
2022/05/14 03:00:16;;;;;;;;;;;;;;;;;;;;;
2022/05/14 03:01:21;;;;;;;;;;;;;;;;;;2587314;23;19950;-84
2022/05/14 03:02:34;;;;;;;;;;;;;;;;;;;;;
2022/05/14 03:03:44;;;;;;;;;;;;;;;;;;;;;
2022/05/14 03:05:03;;;;;;;;;;;;;;;;;;2587369;23;19914;-85
2022/05/14 03:06:13;;;;;;;;;;;;;;;;;;;;;
2022/05/14 03:07:15;;;;;;;;;;;;;;;;;;2586608;23;19910;-83
2022/05/14 03:08:38;;;;;;;;;;;;;;;;;;2569979;23;19973;-83
2022/05/14 03:09:45;;;;;;;;;;;;;;;;;;2575027;23;19914;-83
2022/05/14 03:10:54;;;;;;;;;;;;;;;;;;2570808;23;20302;-84
2022/05/14 03:12:00;;;;;;;;;;;;;;;;;;2576847;23;20165;-83
2022/05/14 03:13:03;;;;;;;;;;;;;;;;;;2570966;23;19914;-84
2022/05/14 03:14:03;;;;;;;;;;;;;;;;;;2575515;23;20299;-82
2022/05/14 03:15:23;;;;;;;;;;;;;;;;;;2588128;23;19903;-83
2022/05/14 03:16:24;;;;;;;;;;;;;;;;;;2583473;23;19954;-83
2022/05/14 03:17:27;;;;;;;;;;;;;;;;;;2587612;23;19903;-83
2022/05/14 03:18:41;;;;;;;;;;;;;;;;;;2583517;23;19941;-83
2022/05/14 03:19:46;;;;;;;;;;;;;;;;;;2574404;23;19907;-85
2022/05/14 03:20:54;;;;;;;;;;;;;;;;;;2571318;23;19904;-85
2022/05/14 03:21:54;;;;;;;;;;;;;;;;;;2587574;23;19899;-85
2022/05/14 03:23:04;;;;;;;;;;;;;;;;;;;;;
2022/05/14 03:25:31;;;;;;;;;;;;;;;;;;2583816;23;20361;-85
2022/05/14 03:26:31;;;;;;;;;;;;;;;;;;2588288;23;19961;-85
2022/05/14 03:27:40;;;;;;;;;;;;;;;;;;2588295;23;19908;-84
2022/05/14 03:28:46;;;;;;;;;;;;;;;;;;2570874;23;20299;-85
2022/05/14 03:29:46;;;;;;;;;;;;;;;;;;2575740;23;19904;-84
2022/05/14 03:30:51;;;;;;;;;;;;;;;;;;2587873;23;19914;-83
2022/05/14 03:31:52;;;;;;;;;;;;;;;;;;2588026;23;20278;-83
2022/05/14 03:32:52;;;;;;;;;;;;;;;;;;2587923;23;19907;-83
2022/05/14 03:33:52;;;;;;;;;;;;;;;;;;2583753;23;19947;-82
2022/05/14 03:35:10;;;;;;;;;;;;;;;;;;2588195;23;19986;-84
2022/05/14 03:36:11;;;;;;;;;;;;;;;;;;2583308;23;19903;-84
2022/05/14 03:37:11;;;;;;;;;;;;;;;;;;2583403;23;19933;-84
2022/05/14 03:38:12;;;;;;;;;;;;;;;;;;2570643;23;19990;-83
2022/05/14 03:39:17;;;;;;;;;;;;;;;;;;2574845;23;19911;-83
2022/05/14 03:40:26;;;;;;;;;;;;;;;;;;2588193;23;19903;-83
2022/05/14 03:41:29;;;;;;;;;;;;;;;;;;2571740;23;19911;-83
2022/05/14 03:42:42;;;;;;;;;;;;;;;;;;;;;
2022/05/14 03:43:44;;;;;;;;;;;;;;;;;;2575141;23;19998;-83
2022/05/14 03:44:44;;;;;;;;;;;;;;;;;;2575346;23;19903;-83
2022/05/14 03:45:44;;;;;;;;;;;;;;;;;;2575725;23;19908;-82
2022/05/14 03:46:45;;;;;;;;;;;;;;;;;;2575130;23;20138;-83
2022/05/14 03:47:46;;;;;;;;;;;;;;;;;;2574862;23;19934;-82
2022/05/14 03:48:46;;;;;;;;;;;;;;;;;;2570764;23;19911;-83
2022/05/14 03:49:46;;;;;;;;;;;;;;;;;;2574884;23;19903;-83
2022/05/14 03:50:49;;;;;;;;;;;;;;;;;;2570503;23;19903;-83
2022/05/14 03:51:49;;;;;;;;;;;;;;;;;;2574975;23;19903;-83
2022/05/14 03:52:49;;;;;;;;;;;;;;;;;;2575521;23;19957;-83
2022/05/14 03:53:50;;;;;;;;;;;;;;;;;;2575497;23;19938;-83
2022/05/14 03:54:53;;;;;;;;;;;;;;;;;;2571627;23;20314;-83
2022/05/14 03:55:55;;;;;;;;;;;;;;;;;;2572267;23;19912;-83
2022/05/14 03:56:56;;;;;;;;;;;;;;;;;;2583391;23;20270;-83
2022/05/14 03:57:56;;;;;;;;;;;;;;;;;;2587570;23;19903;-83
2022/05/14 03:59:03;;;;;;;;;;;;;;;;;;2575551;23;19908;-83
2022/05/14 04:00:07;;;;;;;;;;;;;;;;;;2571052;23;20327;-82
2022/05/14 04:01:14;;;;;;;;;;;;;;;;;;2571309;23;19904;-83
2022/05/14 04:02:17;;;;;;;;;;;;;;;;;;2575474;23;19908;-83
2022/05/14 04:03:18;;;;;;;;;;;;;;;;;;2583318;23;20298;-83
2022/05/14 04:04:20;;;;;;;;;;;;;;;;;;2587421;23;19903;-84
2022/05/14 04:05:24;;;;;;;;;;;;;;;;;;2575467;23;20260;-83
2022/05/14 04:06:24;;;;;;;;;;;;;;;;;;2575488;23;19908;-83
2022/05/14 04:07:25;;;;;;;;;;;;;;;;;;2570547;23;19938;-82
2022/05/14 04:08:36;;;;;;;;;;;;;;;;;;2570513;23;19938;-83
2022/05/14 04:09:46;;;;;;;;;;;;;;;;;;2585467;23;19929;-84
2022/05/14 04:10:47;;;;;;;;;;;;;;;;;;2575388;23;19904;-84
2022/05/14 04:11:55;;;;;;;;;;;;;;;;;;2570546;23;19911;-83
2022/05/14 04:12:58;;;;;;;;;;;;;;;;;;2574986;23;20148;-83
2022/05/14 04:13:59;;;;;;;;;;;;;;;;;;2575439;23;19962;-83
2022/05/14 04:15:00;;;;;;;;;;;;;;;;;;2575402;23;20046;-83
2022/05/14 04:16:01;;;;;;;;;;;;;;;;;;2570595;23;20315;-82
2022/05/14 04:17:11;;;;;;;;;;;;;;;;;;2574815;23;19904;-83
2022/05/14 04:18:13;;;;;;;;;;;;;;;;;;2570511;23;19911;-82
2022/05/14 04:19:14;;;;;;;;;;;;;;;;;;2574824;23;20253;-82
2022/05/14 04:20:16;;;;;;;;;;;;;;;;;;2575414;23;19911;-81
2022/05/14 04:21:17;;;;;;;;;;;;;;;;;;2571084;23;20269;-82
2022/05/14 04:22:25;;;;;;;;;;;;;;;;;;2575406;23;19904;-82
2022/05/14 04:23:28;;;;;;;;;;;;;;;;;;2575390;23;19966;-83
2022/05/14 04:24:37;;;;;;;;;;;;;;;;;;2575478;23;19968;-83
2022/05/14 04:25:37;;;;;;;;;;;;;;;;;;2575477;23;19982;-82
2022/05/14 04:26:48;;;;;;;;;;;;;;;;;;;;;
2022/05/14 04:27:49;;;;;;;;;;;;;;;;;;2572196;23;19904;-83
2022/05/14 04:29:02;;;;;;;;;;;;;;;;;;;;;
2022/05/14 04:30:02;;;;;;;;;;;;;;;;;;2575256;23;20319;-83
2022/05/14 04:31:12;;;;;;;;;;;;;;;;;;2570403;23;19962;-82
2022/05/14 04:32:17;;;;;;;;;;;;;;;;;;2574810;23;20311;-81
2022/05/14 04:33:17;;;;;;;;;;;;;;;;;;2574623;23;19908;-83
2022/05/14 04:34:21;;;;;;;;;;;;;;;;;;2575215;23;20688;-83
2022/05/14 04:35:28;;;;;;;;;;;;;;;;;;2575274;23;19915;-83
2022/05/14 04:36:29;;;;;;;;;;;;;;;;;;2575126;23;19904;-83
2022/05/14 04:37:33;;;;;;;;;;;;;;;;;;2575097;23;19915;-82
2022/05/14 04:38:36;;;;;;;;;;;;;;;;;;2575228;23;20250;-84
2022/05/14 04:39:40;;;;;;;;;;;;;;;;;;2575377;23;19908;-84
2022/05/14 04:40:44;;;;;;;;;;;;;;;;;;2575017;23;19904;-84
2022/05/14 04:41:46;;;;;;;;;;;;;;;;;;2583205;23;19908;-84
2022/05/14 04:42:51;;;;;;;;;;;;;;;;;;2570104;23;20335;-84
2022/05/14 04:43:52;;;;;;;;;;;;;;;;;;2571004;23;19970;-85
2022/05/14 04:45:02;;;;;;;;;;;;;;;;;;2587784;23;19907;-83
2022/05/14 04:46:17;;;;;;;;;;;;;;;;;;2587836;23;19939;-83
2022/05/14 04:47:17;;;;;;;;;;;;;;;;;;2587556;23;19935;-83
2022/05/14 04:48:18;;;;;;;;;;;;;;;;;;2587501;23;19904;-84
2022/05/14 04:49:18;;;;;;;;;;;;;;;;;;2570212;23;20306;-84
2022/05/14 04:52:02;;;;;;;;;;;;;;;;;;2582825;23;19915;-85
2022/05/14 04:53:02;;;;;;;;;;;;;;;;;;2582619;23;19986;-83
2022/05/14 04:54:05;;;;;;;;;;;;;;;;;;2586901;23;19926;-84
2022/05/14 04:55:06;;;;;;;;;;;;;;;;;;2587302;23;19946;-85
2022/05/14 04:56:30;;;;;;;;;;;;;;;;;;2587179;23;19987;-84
2022/05/14 04:57:30;;;;;;;;;;;;;;;;;;2583436;23;19981;-85
2022/05/14 04:58:30;;;;;;;;;;;;;;;;;;2587754;23;19904;-86
2022/05/14 04:59:31;;;;;;;;;;;;;;;;;;2587611;23;19908;-85
2022/05/14 05:00:31;;;;;;;;;;;;;;;;;;2587678;23;19908;-85
2022/05/14 05:01:31;;;;;;;;;;;;;;;;;;2587369;23;20257;-84
2022/05/14 05:03:50;;;;;;;;;;;;;;;;;;2587083;23;19903;-83
2022/05/14 05:04:51;;;;;;;;;;;;;;;;;;2570417;23;20327;-84
2022/05/14 05:05:55;;;;;;;;;;;;;;;;;;2570189;23;20100;-85
2022/05/14 05:06:56;;;;;;;;;;;;;;;;;;2587367;23;20226;-84
2022/05/14 05:07:59;;;;;;;;;;;;;;;;;;2587282;23;19908;-84
2022/05/14 05:08:59;;;;;;;;;;;;;;;;;;2570048;23;19903;-85
2022/05/14 05:10:00;;;;;;;;;;;;;;;;;;2574155;23;20200;-84
2022/05/14 05:11:11;;;;;;;;;;;;;;;;;;2570268;23;19942;-87
2022/05/14 05:12:15;;;;;;;;;;;;;;;;;;2576561;23;20299;-85
2022/05/14 05:13:19;;;;;;;;;;;;;;;;;;2587245;23;20250;-83
2022/05/14 05:14:22;;;;;;;;;;;;;;;;;;2587294;23;19914;-87
2022/05/14 05:15:25;;;;;;;;;;;;;;;;;;2587232;23;19907;-83
2022/05/14 05:16:35;;;;;;;;;;;;;;;;;;2569627;23;20304;-85
2022/05/14 05:17:36;;;;;;;;;;;;;;;;;;2563356;23;19931;-83
2022/05/14 05:18:37;;;;;;;;;;;;;;;;;;2557321;23;19979;-83
2022/05/14 05:19:37;;;;;;;;;;;;;;;;;;2574831;23;19904;-83
2022/05/14 05:20:56;;;;;;;;;;;;;;;;;;;;;
2022/05/14 05:24:09;;;;;;;;;;;;;;;;;;;;;
2022/05/14 05:25:44;;;;;;;;;;;;;;;;;;2554530;23;20330;-84
2022/05/14 05:26:49;;;;;;;;;;;;;;;;;;2524549;23;19905;-84
2022/05/14 05:27:53;;;;;;;;;;;;;;;;;;2524924;23;20315;-83
2022/05/14 05:28:56;;;;;;;;;;;;;;;;;;2530933;23;20039;-84
2022/05/14 05:29:59;;;;;;;;;;;;;;;;;;2544829;23;19905;-85
2022/05/14 05:30:59;;;;;;;;;;;;;;;;;;2563947;23;19904;-84
2022/05/14 05:31:59;;;;;;;;;;;;;;;;;;2587479;23;19969;-84
2022/05/14 05:33:07;;;;;;;;;;;;;;;;;;2586669;23;19903;-85
2022/05/14 05:34:12;;;;;;;;;;;;;;;;;;2573785;23;19918;-83
2022/05/14 05:35:15;;;;;;;;;;;;;;;;;;2575077;23;19908;-81
2022/05/14 05:36:15;;;;;;;;;;;;;;;;;;2587340;23;19911;-84
2022/05/14 05:37:18;;;;;;;;;;;;;;;;;;2587139;23;19907;-83
2022/05/14 05:38:26;;;;;;;;;;;;;;;;;;2582510;23;19927;-84
2022/05/14 05:39:26;;;;;;;;;;;;;;;;;;2582368;23;19914;-82
2022/05/14 05:40:27;;;;;;;;;;;;;;;;;;2586938;23;20294;-84
2022/05/14 05:41:29;;;;;;;;;;;;;;;;;;2582406;23;19988;-83
2022/05/14 05:42:33;;;;;;;;;;;;;;;;;;2587177;23;19914;-82
2022/05/14 05:43:33;;;;;;;;;;;;;;;;;;2569588;23;19904;-84
2022/05/14 05:44:36;;;;;;;;;;;;;;;;;;2572077;23;19912;-83
2022/05/14 05:45:56;;;;;;;;;;;;;;;;;;2587784;23;19931;-82
2022/05/14 05:47:06;;;;;;;;;;;;;;;;;;2587731;23;19907;-84
2022/05/14 05:48:06;;;;;;;;;;;;;;;;;;2587774;23;20063;-86
2022/05/14 05:49:23;;;;;;;;;;;;;;;;;;2587667;23;19939;-86
2022/05/14 05:52:21;;;;;;;;;;;;;;;;;;2579825;23;19914;-85
2022/05/14 05:57:38;;;;;;;;;;;;;;;;;;2588692;23;19923;-85
2022/05/14 05:58:43;;;;;;;;;;;;;;;;;;2587005;23;19903;-85
2022/05/14 06:00:15;;;;;;;;;;;;;;;;;;2591288;23;19965;-84
2022/05/14 06:01:48;;;;;;;;;;;;;;;;;;2559747;23;19904;-85
2022/05/14 06:02:49;;;;;;;;;;;;;;;;;;2582066;23;19919;-84
2022/05/14 06:03:52;;;;;;;;;;;;;;;;;;2587120;23;19908;-85
2022/05/14 06:05:05;;;;;;;;;;;;;;;;;;2582707;23;20234;-89
2022/05/14 06:06:08;;;;;;;;;;;;;;;;;;2586174;23;19907;-85
2022/05/14 06:07:42;;;;;;;;;;;;;;;;;;;;;
2022/05/14 06:08:44;;;;;;;;;;;;;;;;;;2575678;23;19927;-85
2022/05/14 06:09:48;;;;;;;;;;;;;;;;;;2587349;23;19914;-85
2022/05/14 06:10:58;;;;;;;;;;;;;;;;;;2587340;23;19931;-85
2022/05/14 06:13:39;;;;;;;;;;;;;;;;;;2583534;23;20410;-84
2022/05/14 06:14:44;;;;;;;;;;;;;;;;;;2587502;23;19903;-85
2022/05/14 06:15:47;;;;;;;;;;;;;;;;;;2587472;23;19914;-86
2022/05/14 06:16:53;;;;;;;;;;;;;;;;;;2587315;23;19974;-85
2022/05/14 06:18:09;;;;;;;;;;;;;;;;;;;;;
2022/05/14 06:19:18;;;;;;;;;;;;;;;;;;2582597;23;19986;-87
2022/05/14 06:20:32;;;;;;;;;;;;;;;;;;2587386;23;19903;-85
2022/05/14 06:21:42;;;;;;;;;;;;;;;;;;2587419;23;19914;-87
2022/05/14 06:22:45;;;;;;;;;;;;;;;;;;2587538;23;19973;-85
2022/05/14 06:23:54;;;;;;;;;;;;;;;;;;2587568;23;20490;-84
2022/05/14 06:25:07;;;;;;;;;;;;;;;;;;2587437;23;20118;-85
2022/05/14 06:27:35;;;;;;;;;;;;;;;;;;2582009;23;19904;-85
2022/05/14 06:29:09;;;;;;;;;;;;;;;;;;2587154;23;19913;-88
2022/05/14 06:30:19;;;;;;;;;;;;;;;;;;;;;
2022/05/14 06:31:30;;;;;;;;;;;;;;;;;;2587142;23;19903;-85
2022/05/14 06:32:35;;;;;;;;;;;;;;;;;;2574027;23;20277;-85
2022/05/14 06:33:48;;;;;;;;;;;;;;;;;;2570958;23;19982;-85
2022/05/14 06:35:17;;;;;;;;;;;;;;;;;;;;;
2022/05/14 06:36:45;;;;;;;;;;;;;;;;;;2580377;23;19904;-86
2022/05/14 06:37:48;;;;;;;;;;;;;;;;;;2583249;23;19911;-85
2022/05/14 06:39:07;;;;;;;;;;;;;;;;;;;;;
2022/05/14 06:40:20;;;;;;;;;;;;;;;;;;2584170;23;19903;-85
2022/05/14 06:42:51;;;;;;;;;;;;;;;;;;2583118;23;19908;-85
2022/05/14 06:44:06;;;;;;;;;;;;;;;;;;;;;
2022/05/14 06:45:14;;;;;;;;;;;;;;;;;;2582159;23;19911;-85
2022/05/14 06:46:15;;;;;;;;;;;;;;;;;;2585992;23;19934;-86
2022/05/14 06:47:23;;;;;;;;;;;;;;;;;;2583598;23;19903;-85
2022/05/14 06:48:26;;;;;;;;;;;;;;;;;;2587325;23;19907;-85
2022/05/14 06:49:58;;;;;;;;;;;;;;;;;;2587151;23;19919;-84
2022/05/14 06:51:16;;;;;;;;;;;;;;;;;;2582391;23;19942;-89
2022/05/14 06:52:20;;;;;;;;;;;;;;;;;;2587084;23;19953;-85
2022/05/14 06:53:25;;;;;;;;;;;;;;;;;;2587158;23;19908;-85
2022/05/14 06:56:17;;;;;;;;;;;;;;;;;;2576937;23;19937;-84
2022/05/14 06:57:23;;;;;;;;;;;;;;;;;;2587524;23;19903;-84
2022/05/14 06:58:50;;;;;;;;;;;;;;;;;;2587382;23;20250;-85
2022/05/14 06:59:54;;;;;;;;;;;;;;;;;;2587309;23;19927;-86
2022/05/14 07:01:10;;;;;;;;;;;;;;;;;;;;;
2022/05/14 07:02:18;;;;;;;;;;;;;;;;;;2587537;23;20231;-85
2022/05/14 07:08:00;;;;;;;;;;;;;;;;;;2587707;23;20258;-85
2022/05/14 07:09:12;;;;;;;;;;;;;;;;;;2582005;23;20303;-86
2022/05/14 07:10:43;;;;;;;;;;;;;;;;;;2569505;23;20235;-91
2022/05/14 07:11:48;;;;;;;;;;;;;;;;;;2570783;23;19904;-87
2022/05/14 07:13:13;;;;;;;;;;;;;;;;;;2587534;23;19984;-87
2022/05/14 07:14:21;;;;;;;;;;;;;;;;;;2587301;23;20026;-85
2022/05/14 07:15:36;;;;;;;;;;;;;;;;;;2587272;23;20361;-85
2022/05/14 07:16:43;;;;;;;;;;;;;;;;;;2587237;23;19918;-86
2022/05/14 07:17:56;;;;;;;;;;;;;;;;;;;;;
2022/05/14 07:19:06;;;;;;;;;;;;;;;;;;2587322;23;19913;-86
2022/05/14 07:20:09;;;;;;;;;;;;;;;;;;2569979;23;20369;-89
2022/05/14 07:21:19;;;;;;;;;;;;;;;;;;2570608;23;20219;-86
2022/05/14 07:22:30;;;;;;;;;;;;;;;;;;;;;
2022/05/14 07:23:36;;;;;;;;;;;;;;;;;;2587956;23;20254;-85
2022/05/14 07:24:39;;;;;;;;;;;;;;;;;;2587303;23;19965;-87
2022/05/14 07:25:41;;;;;;;;;;;;;;;;;;2582682;23;19904;-86
2022/05/14 07:27:03;;;;;;;;;;;;;;;;;;;;;
2022/05/14 07:28:03;;;;;;;;;;;;;;;;;;2578537;23;19907;-87
2022/05/14 07:29:12;;;;;;;;;;;;;;;;;;2587253;23;20302;-86
2022/05/14 07:30:13;;;;;;;;;;;;;;;;;;2569909;23;19951;-87
2022/05/14 07:31:39;;;;;;;;;;;;;;;;;;2573546;23;19904;-90
2022/05/14 07:32:57;;;;;;;;;;;;;;;;;;;;;
2022/05/14 07:35:30;;;;;;;;;;;;;;;;;;2572068;23;19907;-86
2022/05/14 07:36:58;;;;;;;;;;;;;;;;;;2587320;23;19969;-88
2022/05/14 07:38:09;;;;;;;;;;;;;;;;;;2569444;23;20323;-86
2022/05/14 07:39:25;;;;;;;;;;;;;;;;;;;;;
2022/05/14 07:41:03;;;;;;;;;;;;;;;;;;2586945;23;19938;-87
2022/05/14 07:42:09;;;;;;;;;;;;;;;;;;2584219;23;19961;-87
2022/05/14 07:43:17;;;;;;;;;;;;;;;;;;2574032;23;20246;-88
2022/05/14 07:45:53;;;;;;;;;;;;;;;;;;2582840;23;19915;-87
2022/05/14 07:46:56;;;;;;;;;;;;;;;;;;2587180;23;19904;-84
2022/05/14 07:48:07;;;;;;;;;;;;;;;;;;;;;
2022/05/14 07:50:58;;;;;;;;;;;;;;;;;;2582796;23;20307;-89
2022/05/14 07:53:21;;;;;;;;;;;;;;;;;;2571962;23;20199;-87
2022/05/14 07:54:41;;;;;;;;;;;;;;;;;;;;;
2022/05/14 07:55:51;;;;;;;;;;;;;;;;;;2587178;23;19986;-87
2022/05/14 07:57:02;;;;;;;;;;;;;;;;;;;;;
2022/05/14 07:58:27;;;;;;;;;;;;;;;;;;;;;
2022/05/14 07:59:36;;;;;;;;;;;;;;;;;;2587983;23;19907;-87
2022/05/14 08:00:40;;;;;;;;;;;;;;;;;;2587942;23;19903;-86
2022/05/14 08:01:41;;;;;;;;;;;;;;;;;;2587926;23;19904;-87
2022/05/14 08:02:51;;;;;;;;;;;;;;;;;;2570703;23;19926;-89
2022/05/14 08:05:23;;;;;;;;;;;;;;;;;;;;;
2022/05/14 08:07:53;;;;;;;;;;;;;;;;;;2572530;23;19910;-85
2022/05/14 08:09:14;;;;;;;;;;;;;;;;;;2583267;23;20397;-86
2022/05/14 08:10:32;;;;;;;;;;;;;;;;;;2582970;23;19903;-86
2022/05/14 08:11:58;;;;;;;;;;;;;;;;;;2571490;23;19908;-88
2022/05/14 08:13:13;;;;;;;;;;;;;;;;;;2575801;23;19982;-88
2022/05/14 08:14:16;;;;;;;;;;;;;;;;;;2570932;23;20259;-87
2022/05/14 08:15:45;;;;;;;;;;;;;;;;;;2570578;23;19904;-87
2022/05/14 08:16:53;;;;;;;;;;;;;;;;;;2587763;23;20298;-87
2022/05/14 08:18:11;;;;;;;;;;;;;;;;;;2588237;23;19903;-88